Time,TemperatureF,DewpointF,PressureIn,WindDirection,WindDirectionDegrees,WindSpeedMPH,WindSpeedGustMPH,Humidity,HourlyPrecipIn,Conditions,Clouds,dailyrainin,SolarRadiationWatts/m^2,SoftwareType,DateUTC
2013-07-18 00:01:00,54.0,53.0,-100.00,ENE,60,0.0,1.0,97,0.00,,,0.00,0.000000,,2013-07-18 07:01:00,
2013-07-18 04:32:00,52.0,49.0,-100.00,West,274,1.0,2.0,90,-99.99,,,0.00,0.000000,,2013-07-18 11:32:00,
2013-07-18 04:43:00,52.0,49.0,-100.00,West,274,1.0,2.0,90,-99.99,,,0.00,0.000000,,2013-07-18 11:43:00,
2013-07-18 04:52:00,52.0,49.0,-100.00,West,274,1.0,2.0,90,-99.99,,,0.00,0.000000,,2013-07-18 11:52:00,
2013-07-18 05:01:00,52.0,49.0,-100.00,West,274,1.0,2.0,90,-99.99,,,0.00,0.000000,,2013-07-18 12:01:00,
2013-07-18 05:33:00,51.0,49.0,-100.00,ENE,68,0.0,1.0,93,0.00,,,0.00,0.000000,,2013-07-18 12:33:00,
2013-07-18 06:33:00,49.0,48.0,-100.00,North,10,1.0,5.0,95,0.00,,,0.00,7.000000,,2013-07-18 13:33:00,
2013-07-18 06:43:00,49.0,48.0,-100.00,North,10,1.0,5.0,95,0.00,,,0.00,7.000000,,2013-07-18 13:43:00,
2013-07-18 06:53:00,49.0,48.0,-100.00,North,10,1.0,5.0,95,0.00,,,0.00,7.000000,,2013-07-18 13:53:00,
2013-07-18 07:02:00,49.0,48.0,-100.00,North,10,1.0,5.0,95,0.00,,,0.00,7.000000,,2013-07-18 14:02:00,
2013-07-18 07:33:00,49.0,47.0,-100.00,WSW,237,1.0,5.0,92,0.00,,,0.00,35.000000,,2013-07-18 14:33:00,
2013-07-18 07:43:00,49.0,47.0,-100.00,WSW,237,1.0,5.0,92,0.00,,,0.00,35.000000,,2013-07-18 14:43:00,
2013-07-18 07:53:00,49.0,47.0,-100.00,WSW,237,1.0,5.0,92,0.00,,,0.00,35.000000,,2013-07-18 14:53:00,
2013-07-18 08:01:00,49.0,47.0,-100.00,WSW,237,1.0,5.0,92,0.00,,,0.00,35.000000,,2013-07-18 15:01:00,
2013-07-18 08:43:00,51.0,46.0,-100.00,SE,140,1.0,6.0,83,0.00,,,0.00,38.000000,,2013-07-18 15:43:00,
2013-07-18 08:53:00,51.0,46.0,-100.00,SE,140,1.0,6.0,83,0.00,,,0.00,38.000000,,2013-07-18 15:53:00,
2013-07-18 09:01:00,51.0,46.0,-100.00,SE,140,1.0,6.0,83,0.00,,,0.00,38.000000,,2013-07-18 16:01:00,
2013-07-18 09:32:00,64.0,47.0,-100.00,SE,132,1.0,4.0,54,0.00,,,0.00,353.000000,,2013-07-18 16:32:00,
2013-07-18 09:42:00,64.0,47.0,-100.00,SE,132,1.0,4.0,54,0.00,,,0.00,353.000000,,2013-07-18 16:42:00,
2013-07-18 09:52:00,64.0,47.0,-100.00,SE,132,1.0,4.0,54,0.00,,,0.00,353.000000,,2013-07-18 16:52:00,
2013-07-18 10:01:00,64.0,47.0,-100.00,SE,132,1.0,4.0,54,0.00,,,0.00,353.000000,,2013-07-18 17:01:00,
2013-07-18 10:43:00,74.0,45.0,-100.00,SSW,199,1.0,5.0,36,0.00,,,0.00,870.000000,,2013-07-18 17:43:00,
2013-07-18 10:52:00,74.0,45.0,-100.00,SSW,199,1.0,5.0,36,0.00,,,0.00,870.000000,,2013-07-18 17:52:00,
2013-07-18 11:01:00,74.0,45.0,-100.00,SSW,199,1.0,5.0,36,0.00,,,0.00,870.000000,,2013-07-18 18:01:00,
2013-07-18 11:32:00,77.0,42.0,-100.00,NW,321,2.0,9.0,29,0.00,,,0.00,1053.000000,,2013-07-18 18:32:00,
2013-07-18 11:43:00,77.0,42.0,-100.00,NW,321,2.0,9.0,29,0.00,,,0.00,1053.000000,,2013-07-18 18:43:00,
2013-07-18 11:52:00,77.0,42.0,-100.00,NW,321,2.0,9.0,29,0.00,,,0.00,1053.000000,,2013-07-18 18:52:00,
2013-07-18 12:01:00,77.0,42.0,-100.00,NW,321,2.0,9.0,29,0.00,,,0.00,1053.000000,,2013-07-18 19:01:00,
2013-07-18 12:43:00,78.0,42.0,-100.00,NNW,334,3.0,11.0,28,0.00,,,0.00,1188.000000,,2013-07-18 19:43:00,
2013-07-18 12:53:00,78.0,42.0,-100.00,NNW,334,3.0,11.0,28,0.00,,,0.00,1188.000000,,2013-07-18 19:53:00,
2013-07-18 13:01:00,78.0,42.0,-100.00,NNW,334,3.0,11.0,28,0.00,,,0.00,1188.000000,,2013-07-18 20:01:00,
2013-07-18 13:43:00,83.0,40.0,-100.00,SE,141,3.0,10.0,22,0.00,,,0.00,1263.000000,,2013-07-18 20:43:00,
2013-07-18 13:52:00,83.0,40.0,-100.00,SE,141,3.0,10.0,22,0.00,,,0.00,1263.000000,,2013-07-18 20:52:00,
2013-07-18 14:01:00,83.0,40.0,-100.00,SE,141,3.0,10.0,22,0.00,,,0.00,1263.000000,,2013-07-18 21:01:00,
2013-07-18 14:32:00,86.0,40.0,-100.00,SW,235,4.0,12.0,20,0.00,,,0.00,1268.000000,,2013-07-18 21:32:00,
2013-07-18 14:43:00,86.0,40.0,-100.00,SW,235,4.0,12.0,20,0.00,,,0.00,1268.000000,,2013-07-18 21:43:00,
2013-07-18 14:52:00,86.0,40.0,-100.00,SW,235,4.0,12.0,20,0.00,,,0.00,1268.000000,,2013-07-18 21:52:00,
2013-07-18 15:01:00,86.0,40.0,-100.00,SW,235,4.0,12.0,20,0.00,,,0.00,1268.000000,,2013-07-18 22:01:00,
2013-07-18 15:43:00,88.0,42.0,-100.00,ENE,60,3.0,13.0,20,0.00,,,0.00,1207.000000,,2013-07-18 22:43:00,
2013-07-18 15:53:00,88.0,42.0,-100.00,ENE,60,3.0,13.0,20,0.00,,,0.00,1207.000000,,2013-07-18 22:53:00,
2013-07-18 16:01:00,88.0,42.0,-100.00,ENE,60,3.0,13.0,20,0.00,,,0.00,1207.000000,,2013-07-18 23:01:00,
2013-07-18 16:32:00,87.0,46.0,-100.00,West,280,3.0,13.0,24,0.00,,,0.00,1067.000000,,2013-07-18 23:32:00,
2013-07-18 16:42:00,87.0,46.0,-100.00,West,280,3.0,13.0,24,0.00,,,0.00,1067.000000,,2013-07-18 23:42:00,
2013-07-18 16:52:00,87.0,46.0,-100.00,West,280,3.0,13.0,24,0.00,,,0.00,1067.000000,,2013-07-18 23:52:00,
2013-07-18 17:01:00,87.0,46.0,-100.00,West,280,3.0,13.0,24,0.00,,,0.00,1067.000000,,2013-07-19 00:01:00,
2013-07-18 17:43:00,86.0,49.0,-100.00,NNW,330,3.0,11.0,28,0.00,,,0.00,889.000000,,2013-07-19 00:43:00,
2013-07-18 17:52:00,86.0,49.0,-100.00,NNW,330,3.0,11.0,28,0.00,,,0.00,889.000000,,2013-07-19 00:52:00,
2013-07-18 18:01:00,86.0,49.0,-100.00,NNW,330,3.0,11.0,28,0.00,,,0.00,889.000000,,2013-07-19 01:01:00,
2013-07-18 18:32:00,82.0,49.0,-100.00,West,278,3.0,14.0,32,0.00,,,0.00,669.000000,,2013-07-19 01:32:00,
2013-07-18 18:42:00,82.0,49.0,-100.00,West,278,3.0,14.0,32,0.00,,,0.00,669.000000,,2013-07-19 01:42:00,
2013-07-18 18:52:00,82.0,49.0,-100.00,West,278,3.0,14.0,32,0.00,,,0.00,669.000000,,2013-07-19 01:52:00,
2013-07-18 19:01:00,82.0,49.0,-100.00,West,278,3.0,14.0,32,0.00,,,0.00,669.000000,,2013-07-19 02:01:00,
2013-07-18 19:32:00,75.0,52.0,-100.00,NE,40,3.0,11.0,45,0.00,,,0.00,299.000000,,2013-07-19 02:32:00,
2013-07-18 19:42:00,75.0,52.0,-100.00,NE,40,3.0,11.0,45,0.00,,,0.00,299.000000,,2013-07-19 02:42:00,
2013-07-18 19:52:00,75.0,52.0,-100.00,NE,40,3.0,11.0,45,0.00,,,0.00,299.000000,,2013-07-19 02:52:00,
2013-07-18 20:01:00,75.0,52.0,-100.00,NE,40,3.0,11.0,45,0.00,,,0.00,299.000000,,2013-07-19 03:01:00,
2013-07-18 20:52:00,68.0,54.0,-100.00,NW,317,2.0,11.0,62,0.00,,,0.00,94.000000,,2013-07-19 03:52:00,
2013-07-18 21:02:00,68.0,54.0,-100.00,NW,317,2.0,11.0,62,0.00,,,0.00,94.000000,,2013-07-19 04:02:00,
2013-07-18 21:52:00,61.0,55.0,-100.00,NE,51,1.0,7.0,81,0.00,,,0.00,6.000000,,2013-07-19 04:52:00,
2013-07-18 22:02:00,61.0,55.0,-100.00,NE,51,1.0,7.0,81,0.00,,,0.00,6.000000,,2013-07-19 05:02:00,
2013-07-18 23:01:00,55.0,52.0,-100.00,South,189,1.0,2.0,91,0.00,,,-99.99,0.000000,,2013-07-19 06:01:00,